createdAt,value
2022-07-28T00:01:09.657Z,96461.56
2022-07-28T00:03:36.514Z,96459.41
2022-07-28T00:06:03.460Z,96463.88
2022-07-28T00:08:30.301Z,96447.34
2022-07-28T00:10:57.174Z,96449.72
2022-07-28T00:13:24.025Z,96452.16
2022-07-28T00:15:51.019Z,96446.34
2022-07-28T00:18:18.000Z,96452.69
2022-07-28T00:20:44.829Z,96447.97
2022-07-28T00:23:11.681Z,96443.44
2022-07-28T00:25:38.601Z,96443.69
2022-07-28T00:28:05.651Z,96443.63
2022-07-28T00:30:32.479Z,96442.97
2022-07-28T00:33:00.157Z,96439.44
2022-07-28T00:35:30.459Z,96442.81
2022-07-28T00:37:58.015Z,96443.75
2022-07-28T00:40:44.938Z,96445.59
2022-07-28T00:43:12.154Z,96443.59
2022-07-28T00:45:39.216Z,96446.88
2022-07-28T00:48:06.317Z,96444.25
2022-07-28T00:50:33.252Z,96447.97
2022-07-28T00:53:00.622Z,96448.34
2022-07-28T00:55:27.741Z,96439.06
2022-07-28T00:57:54.604Z,96434.97
2022-07-28T01:00:21.694Z,96431.63
2022-07-28T01:02:48.824Z,96434.72
2022-07-28T01:05:16.412Z,96432.69
2022-07-28T01:07:59.886Z,96430.97
2022-07-28T01:10:46.906Z,96424.25
2022-07-28T01:13:49.126Z,96432.16
2022-07-28T01:16:16.384Z,96419.25
2022-07-28T01:19:05.285Z,96424.22
2022-07-28T01:21:38.066Z,96422.41
2022-07-28T01:24:31.825Z,96419.75
2022-07-28T01:27:08.274Z,96418.63
2022-07-28T01:29:53.018Z,96422.91
2022-07-28T01:32:26.213Z,96423.78
2022-07-28T01:35:08.067Z,96419.44
2022-07-28T01:37:42.435Z,96412.38
2022-07-28T01:40:12.441Z,96412.09
2022-07-28T01:42:45.200Z,96412.03
2022-07-28T01:45:14.456Z,96405.91
2022-07-28T01:47:45.390Z,96402.78
2022-07-28T01:50:15.996Z,96386.31
2022-07-28T01:52:46.513Z,96403.13
2022-07-28T01:55:14.390Z,96396.06
2022-07-28T01:57:42.509Z,96389.34
2022-07-28T02:00:11.534Z,96393.75
2022-07-28T02:02:40.700Z,96392.13
2022-07-28T02:05:12.413Z,96386.81
2022-07-28T02:07:43.112Z,96389.06
2022-07-28T02:10:12.433Z,96386.97
2022-07-28T02:12:40.658Z,96398.38
2022-07-28T02:15:12.584Z,96401.09
2022-07-28T02:17:42.638Z,96396.72
2022-07-28T02:20:10.945Z,96384.38
2022-07-28T02:22:40.506Z,96389.78
2022-07-28T02:25:08.380Z,96392.97
2022-07-28T02:27:42.716Z,96392.47
2022-07-28T02:30:38.778Z,96389.09
2022-07-28T02:33:16.060Z,96384.44
2022-07-28T02:36:02.322Z,96376.03
2022-07-28T02:38:37.772Z,96379.75
2022-07-28T02:41:15.402Z,96375.53
2022-07-28T02:43:50.255Z,96374.59
2022-07-28T02:46:23.400Z,96368.81
2022-07-28T02:48:58.086Z,96376.28
2022-07-28T02:51:29.008Z,96386.84
2022-07-28T02:53:56.818Z,96384.44
2022-07-28T02:56:25.470Z,96380.84
2022-07-28T02:58:54.250Z,96381.69
2022-07-28T03:01:22.461Z,96379.34
2022-07-28T03:03:50.383Z,96377.97
2022-07-28T03:06:19.651Z,96375.91
2022-07-28T03:08:54.094Z,96378.44
2022-07-28T03:11:20.926Z,96383.28
2022-07-28T03:13:47.757Z,96381.22
2022-07-28T03:16:14.638Z,96379.81
2022-07-28T03:18:41.562Z,96390.38
2022-07-28T03:21:08.828Z,96396.84
2022-07-28T03:23:41.673Z,96391.03
2022-07-28T03:26:41.164Z,96391.53
2022-07-28T03:29:10.305Z,96392.94
2022-07-28T03:31:40.546Z,96394.91
2022-07-28T03:34:11.153Z,96397.72
2022-07-28T03:36:44.615Z,96398.19
2022-07-28T03:39:12.306Z,96404.88
2022-07-28T03:41:43.477Z,96403.19
2022-07-28T03:44:12.543Z,96406.97
2022-07-28T03:46:46.428Z,96404.97
2022-07-28T03:49:13.854Z,96406.50
2022-07-28T03:51:40.756Z,96402.47
2022-07-28T03:54:07.626Z,96402.66
2022-07-28T03:56:34.481Z,96399.06
2022-07-28T03:59:01.324Z,96401.19
2022-07-28T04:01:28.272Z,96399.25
2022-07-28T04:03:55.155Z,96395.41
2022-07-28T04:06:21.972Z,96398.31
2022-07-28T04:08:48.825Z,96403.59
2022-07-28T04:11:15.650Z,96398.44
2022-07-28T04:13:42.486Z,96395.94
2022-07-28T04:16:09.330Z,96405.31
2022-07-28T04:18:36.397Z,96398.13
2022-07-28T04:21:04.316Z,96399.72
2022-07-28T04:23:31.257Z,96408.03
2022-07-28T04:25:58.205Z,96407.00
2022-07-28T04:28:25.328Z,96400.63
2022-07-28T04:30:52.250Z,96400.63
2022-07-28T04:33:20.370Z,96399.41
2022-07-28T04:35:47.382Z,96394.66
2022-07-28T04:38:15.003Z,96403.94
2022-07-28T04:40:42.500Z,96406.31
2022-07-28T04:43:10.317Z,96402.25
2022-07-28T04:45:37.284Z,96401.34
2022-07-28T04:48:04.964Z,96405.19
2022-07-28T04:50:32.631Z,96395.03
2022-07-28T04:52:59.926Z,96404.22
2022-07-28T04:55:26.791Z,96404.97
2022-07-28T04:57:53.615Z,96408.69
2022-07-28T05:00:22.906Z,96409.88
2022-07-28T05:02:50.462Z,96407.31
2022-07-28T05:05:17.609Z,96402.41
2022-07-28T05:07:44.536Z,96404.88
2022-07-28T05:10:12.769Z,96409.88
2022-07-28T05:12:39.879Z,96413.88
2022-07-28T05:15:08.042Z,96418.50
2022-07-28T05:17:36.933Z,96420.28
2022-07-28T05:20:06.133Z,96419.81
2022-07-28T05:22:47.154Z,96418.78
2022-07-28T05:25:19.993Z,96417.28
2022-07-28T05:27:47.685Z,96418.28
2022-07-28T05:30:15.852Z,96418.84
2022-07-28T05:32:43.270Z,96421.22
2022-07-28T05:35:10.508Z,96412.72
2022-07-28T05:37:38.299Z,96418.25
2022-07-28T05:40:14.565Z,96422.00
2022-07-28T05:42:43.176Z,96418.81
2022-07-28T05:45:15.597Z,96428.31
2022-07-28T05:47:49.245Z,96432.72
2022-07-28T05:50:18.572Z,96429.63
2022-07-28T05:52:46.952Z,96429.28
2022-07-28T05:55:14.534Z,96428.03
2022-07-28T05:57:42.012Z,96421.09
2022-07-28T06:00:13.199Z,96421.94
2022-07-28T06:02:41.868Z,96431.19
2022-07-28T06:05:09.594Z,96422.75
2022-07-28T06:07:42.756Z,96415.81
2022-07-28T06:10:12.827Z,96419.56
2022-07-28T06:12:44.951Z,96429.41
2022-07-28T06:15:21.628Z,96423.09
2022-07-28T06:17:52.435Z,96425.19
2022-07-28T06:20:22.937Z,96432.84
2022-07-28T06:22:53.275Z,96429.66
2022-07-28T06:25:27.241Z,96421.13
2022-07-28T06:27:57.276Z,96423.81
2022-07-28T06:30:25.369Z,96428.09
2022-07-28T06:32:53.177Z,96430.63
2022-07-28T06:35:20.630Z,96431.78
2022-07-28T06:37:49.276Z,96427.03
2022-07-28T06:40:18.102Z,96428.09
2022-07-28T06:42:45.514Z,96429.16
2022-07-28T06:45:20.817Z,96429.16
2022-07-28T06:47:49.784Z,96427.59
2022-07-28T06:50:25.042Z,96430.44
2022-07-28T06:52:57.345Z,96425.38
2022-07-28T06:55:33.780Z,96431.88
2022-07-28T06:58:03.997Z,96420.81
2022-07-28T07:00:31.281Z,96417.81
2022-07-28T07:02:58.296Z,96415.19
2022-07-28T07:05:26.073Z,96418.38
2022-07-28T07:07:52.927Z,96411.69
2022-07-28T07:10:20.059Z,96418.91
2022-07-28T07:12:46.930Z,96423.50
2022-07-28T07:15:13.818Z,96427.25
2022-07-28T07:17:41.961Z,96430.16
2022-07-28T07:20:09.862Z,96416.09
2022-07-28T07:22:46.298Z,96419.47
2022-07-28T07:25:16.886Z,96419.31
2022-07-28T07:27:44.425Z,96411.91
2022-07-28T07:30:13.428Z,96402.50
2022-07-28T07:32:41.973Z,96404.97
2022-07-28T07:35:09.305Z,96408.03
2022-07-28T07:37:36.572Z,96408.50
2022-07-28T07:40:06.338Z,96408.53
2022-07-28T07:42:33.300Z,96404.88
2022-07-28T07:45:00.218Z,96402.00
2022-07-28T07:47:27.118Z,96389.78
2022-07-28T07:49:54.046Z,96391.25
2022-07-28T07:52:20.909Z,96397.91
2022-07-28T07:54:47.886Z,96388.38
2022-07-28T07:57:14.744Z,96386.25
2022-07-28T07:59:41.770Z,96381.03
2022-07-28T08:02:09.129Z,96390.38
2022-07-28T08:04:37.054Z,96387.94
2022-07-28T08:07:05.532Z,96391.28
2022-07-28T08:09:33.719Z,96392.91
2022-07-28T08:12:00.560Z,96391.88
2022-07-28T08:14:27.523Z,96386.94
2022-07-28T08:16:56.501Z,96380.91
2022-07-28T08:19:23.422Z,96373.97
2022-07-28T08:21:50.869Z,96379.72
2022-07-28T08:24:30.263Z,96384.97
2022-07-28T08:27:04.276Z,96383.47
2022-07-28T08:29:31.600Z,96380.56
2022-07-28T08:31:58.965Z,96374.72
2022-07-28T08:34:31.502Z,96383.53
2022-07-28T08:37:03.107Z,96394.38
2022-07-28T08:39:35.048Z,96382.66
2022-07-28T08:42:18.614Z,96382.19
2022-07-28T08:45:07.306Z,96380.38
2022-07-28T08:47:58.794Z,96383.63
2022-07-28T08:50:24.889Z,96381.97
2022-07-28T08:52:53.356Z,96376.34
2022-07-28T08:55:31.491Z,96381.41
2022-07-28T08:58:00.213Z,96372.47
2022-07-28T09:00:27.815Z,96381.88
2022-07-28T09:02:55.871Z,96377.19
2022-07-28T09:05:24.120Z,96372.03
2022-07-28T09:07:55.482Z,96377.88
2022-07-28T09:10:23.047Z,96377.69
2022-07-28T09:12:50.877Z,96383.84
2022-07-28T09:15:17.761Z,96376.94
2022-07-28T09:17:45.407Z,96374.84
2022-07-28T09:20:13.790Z,96367.13
2022-07-28T09:23:02.076Z,96373.75
2022-07-28T09:25:30.585Z,96379.28
2022-07-28T09:28:07.230Z,96375.78
2022-07-28T09:30:53.499Z,96378.44
2022-07-28T09:33:42.148Z,96377.56
2022-07-28T09:36:16.211Z,96368.00
2022-07-28T09:38:43.769Z,96368.41
2022-07-28T09:41:11.389Z,96370.25
2022-07-28T09:43:42.413Z,96362.28
2022-07-28T09:46:13.221Z,96360.41
2022-07-28T09:48:49.639Z,96363.16
2022-07-28T09:51:26.456Z,96360.00
2022-07-28T09:53:54.809Z,96363.25
2022-07-28T09:56:23.438Z,96353.84
2022-07-28T09:58:59.320Z,96350.38
2022-07-28T10:01:27.456Z,96349.06
2022-07-28T10:04:02.860Z,96344.38
2022-07-28T10:06:34.388Z,96343.38
2022-07-28T10:09:05.989Z,96338.47
2022-07-28T10:11:35.391Z,96334.25
2022-07-28T10:14:07.218Z,96337.94
2022-07-28T10:16:42.390Z,96332.84
2022-07-28T10:19:09.560Z,96331.56
2022-07-28T10:21:45.997Z,96333.44
2022-07-28T10:24:22.227Z,96325.66
2022-07-28T10:26:50.822Z,96332.81
2022-07-28T10:29:21.854Z,96329.50
2022-07-28T10:31:55.305Z,96325.97
2022-07-28T10:34:26.511Z,96332.66
2022-07-28T10:36:55.856Z,96331.63
2022-07-28T10:39:26.033Z,96314.22
2022-07-28T10:41:53.189Z,96325.59
2022-07-28T10:44:20.414Z,96319.75
2022-07-28T10:46:47.666Z,96321.78
2022-07-28T10:49:15.203Z,96321.28
2022-07-28T10:52:02.563Z,96319.88
2022-07-28T10:54:47.736Z,96307.03
2022-07-28T10:57:16.574Z,96311.72
2022-07-28T11:00:25.953Z,96306.72
2022-07-28T11:03:02.275Z,96306.94
2022-07-28T11:05:42.463Z,96311.91
2022-07-28T11:08:17.042Z,96314.06
2022-07-28T11:10:51.721Z,96313.56
2022-07-28T11:13:32.901Z,96319.09
2022-07-28T11:16:15.732Z,96305.84
2022-07-28T11:19:40.692Z,96307.81
2022-07-28T11:22:19.165Z,96313.91
2022-07-28T11:24:58.567Z,96312.53
2022-07-28T11:27:45.234Z,96316.72
2022-07-28T11:30:28.815Z,96312.91
2022-07-28T11:32:57.399Z,96311.94
2022-07-28T11:35:28.982Z,96300.63
2022-07-28T11:38:02.048Z,96291.38
2022-07-28T11:40:31.000Z,96296.81
2022-07-28T11:43:37.874Z,96296.66
2022-07-28T11:46:07.622Z,96289.56
2022-07-28T11:48:42.631Z,96284.00
2022-07-28T11:51:12.127Z,96297.00
2022-07-28T11:53:49.038Z,96283.38
2022-07-28T11:56:29.444Z,96290.16
2022-07-28T11:59:07.410Z,96291.66
2022-07-28T12:01:37.099Z,96286.41
2022-07-28T12:04:12.210Z,96280.97
2022-07-28T12:06:43.018Z,96284.41
2022-07-28T12:09:11.201Z,96289.53
2022-07-28T12:11:41.306Z,96280.88
2022-07-28T12:14:15.057Z,96277.66
2022-07-28T12:16:45.343Z,96278.97
2022-07-28T12:19:16.258Z,96280.97
2022-07-28T12:21:49.616Z,96271.84
2022-07-28T12:24:21.129Z,96273.03
2022-07-28T12:26:50.241Z,96274.84
2022-07-28T12:29:20.358Z,96271.38
2022-07-28T12:31:56.137Z,96267.97
2022-07-28T12:34:24.382Z,96266.78
2022-07-28T12:37:04.165Z,96255.69
2022-07-28T12:39:36.731Z,96258.63
2022-07-28T12:42:05.276Z,96261.81
2022-07-28T12:44:37.250Z,96256.69
2022-07-28T12:47:08.149Z,96263.44
2022-07-28T12:49:36.785Z,96259.81
2022-07-28T12:52:24.794Z,96263.25
2022-07-28T12:54:55.765Z,96252.59
2022-07-28T12:57:50.530Z,96251.47
2022-07-28T13:00:24.737Z,96243.06
2022-07-28T13:02:56.192Z,96248.78
2022-07-28T13:05:56.528Z,96242.47
2022-07-28T13:08:27.483Z,96241.25
2022-07-28T13:10:58.995Z,96244.13
2022-07-28T13:13:27.393Z,96240.06
2022-07-28T13:16:14.695Z,96246.56
2022-07-28T13:18:59.385Z,96244.56
2022-07-28T13:21:56.605Z,96227.84
2022-07-28T13:24:24.415Z,96233.94
2022-07-28T13:26:51.436Z,96226.22
2022-07-28T13:29:18.378Z,96233.47
2022-07-28T13:31:45.279Z,96235.13
2022-07-28T13:34:12.683Z,96223.41
2022-07-28T13:36:39.975Z,96221.84
2022-07-28T13:39:08.434Z,96218.66
2022-07-28T13:41:56.125Z,96213.13
2022-07-28T13:44:22.247Z,96228.28
2022-07-28T13:46:49.950Z,96213.16
2022-07-28T13:49:18.262Z,96220.56
2022-07-28T13:51:51.041Z,96215.41
2022-07-28T13:54:19.468Z,96212.81
2022-07-28T13:56:47.594Z,96216.16
2022-07-28T13:59:20.626Z,96214.84
2022-07-28T14:01:49.963Z,96211.41
2022-07-28T14:04:21.557Z,96207.63
2022-07-28T14:06:49.862Z,96211.41
2022-07-28T14:09:21.065Z,96207.06
2022-07-28T14:11:49.471Z,96208.19
2022-07-28T14:14:20.486Z,96207.69
2022-07-28T14:16:54.550Z,96202.63
2022-07-28T14:19:37.871Z,96207.19
2022-07-28T14:22:13.734Z,96202.44
2022-07-28T14:24:42.516Z,96199.72
2022-07-28T14:27:10.975Z,96195.53
2022-07-28T14:29:38.817Z,96193.59
2022-07-28T14:32:06.728Z,96189.94
2022-07-28T14:34:34.360Z,96190.88
2022-07-28T14:37:03.517Z,96182.06
2022-07-28T14:39:37.669Z,96187.22
2022-07-28T14:42:06.397Z,96175.31
2022-07-28T14:44:33.782Z,96177.31
2022-07-28T14:47:00.819Z,96185.31
2022-07-28T14:49:29.287Z,96178.13
2022-07-28T14:51:57.512Z,96185.94
2022-07-28T14:54:24.494Z,96174.00
2022-07-28T14:56:52.224Z,96175.03
2022-07-28T14:59:19.113Z,96170.28
2022-07-28T15:01:47.428Z,96165.69
2022-07-28T15:04:16.813Z,96166.09
2022-07-28T15:06:44.548Z,96164.16
2022-07-28T15:09:11.803Z,96158.72
2022-07-28T15:11:39.711Z,96162.44
2022-07-28T15:14:07.146Z,96167.09
2022-07-28T15:16:34.119Z,96156.81
2022-07-28T15:19:01.017Z,96156.47
2022-07-28T15:21:32.995Z,96156.91
2022-07-28T15:24:04.951Z,96157.25
2022-07-28T15:26:31.822Z,96156.66
2022-07-28T15:28:58.845Z,96151.13
2022-07-28T15:31:26.770Z,96153.66
2022-07-28T15:33:58.489Z,96151.53
2022-07-28T15:36:26.146Z,96149.03
2022-07-28T15:38:54.213Z,96148.56
2022-07-28T15:41:21.631Z,96144.75
2022-07-28T15:43:48.641Z,96147.81
2022-07-28T15:46:16.218Z,96149.03
2022-07-28T15:48:44.807Z,96142.59
2022-07-28T15:51:12.137Z,96146.34
2022-07-28T15:53:39.561Z,96143.34
2022-07-28T15:56:06.701Z,96131.00
2022-07-28T15:58:33.767Z,96131.34
2022-07-28T16:01:02.095Z,96132.28
2022-07-28T16:03:30.453Z,96132.59
2022-07-28T16:05:58.829Z,96135.31
2022-07-28T16:08:26.701Z,96137.34
2022-07-28T16:10:54.710Z,96132.16
2022-07-28T16:13:32.159Z,96131.06
2022-07-28T16:16:10.378Z,96140.81
2022-07-28T16:18:38.808Z,96135.91
2022-07-28T16:21:07.450Z,96133.81
2022-07-28T16:23:35.569Z,96136.69
2022-07-28T16:26:05.140Z,96129.47
2022-07-28T16:28:32.082Z,96127.00
2022-07-28T16:30:59.500Z,96121.56
2022-07-28T16:33:26.532Z,96123.31
2022-07-28T16:35:53.468Z,96123.03
2022-07-28T16:38:20.348Z,96123.38
2022-07-28T16:40:47.178Z,96127.09
2022-07-28T16:43:15.219Z,96125.16
2022-07-28T16:45:42.255Z,96134.41
2022-07-28T16:48:09.402Z,96134.03
2022-07-28T16:50:36.296Z,96142.91
2022-07-28T16:53:04.961Z,96144.50
2022-07-28T16:55:31.924Z,96143.81
2022-07-28T16:57:58.974Z,96147.59
2022-07-28T17:00:26.814Z,96135.41
2022-07-28T17:02:53.633Z,96136.56
2022-07-28T17:05:20.837Z,96135.09
2022-07-28T17:07:47.734Z,96132.41
2022-07-28T17:10:20.495Z,96134.69
2022-07-28T17:12:49.923Z,96132.19
2022-07-28T17:15:19.565Z,96137.00
2022-07-28T17:17:49.664Z,96140.28
2022-07-28T17:20:16.928Z,96130.47
2022-07-28T17:22:44.837Z,96135.22
2022-07-28T17:25:35.588Z,96138.38
2022-07-28T17:27:59.178Z,96130.63
2022-07-28T17:30:26.484Z,96131.75
2022-07-28T17:32:58.029Z,96132.13
2022-07-28T17:35:32.704Z,96143.44
2022-07-28T17:38:06.857Z,96138.53
2022-07-28T17:40:33.997Z,96142.09
2022-07-28T17:43:00.866Z,96143.53
2022-07-28T17:45:27.934Z,96153.91
2022-07-28T17:47:54.805Z,96152.63
2022-07-28T17:50:22.226Z,96163.56
2022-07-28T17:52:49.050Z,96165.16
2022-07-28T17:55:58.052Z,96158.91
2022-07-28T17:58:29.175Z,96158.59
2022-07-28T18:01:10.073Z,96172.09
2022-07-28T18:03:58.127Z,96169.72
2022-07-28T18:06:29.957Z,96173.22
2022-07-28T18:08:57.749Z,96178.47
2022-07-28T18:11:29.753Z,96184.81
2022-07-28T18:14:15.694Z,96181.31
2022-07-28T18:16:43.404Z,96195.75
2022-07-28T18:19:10.230Z,96192.34
2022-07-28T18:21:37.081Z,96194.59
2022-07-28T18:24:04.357Z,96200.00
2022-07-28T18:26:31.202Z,96201.59
2022-07-28T18:28:58.057Z,96210.16
2022-07-28T18:31:25.193Z,96203.28
2022-07-28T18:33:52.209Z,96211.13
2022-07-28T18:36:19.087Z,96212.16
2022-07-28T18:38:45.959Z,96208.28
2022-07-28T18:41:15.643Z,96212.03
2022-07-28T18:43:42.464Z,96210.66
2022-07-28T18:46:09.422Z,96217.72
2022-07-28T18:48:36.533Z,96218.34
2022-07-28T18:51:03.587Z,96217.34
2022-07-28T18:53:30.728Z,96218.22
2022-07-28T18:55:57.565Z,96215.66
2022-07-28T18:58:24.457Z,96216.34
2022-07-28T19:00:51.285Z,96206.75
2022-07-28T19:03:18.204Z,96195.19
2022-07-28T19:05:46.390Z,96201.81
2022-07-28T19:08:13.739Z,96210.09
2022-07-28T19:10:42.238Z,96211.91
2022-07-28T19:13:12.757Z,96204.72
2022-07-28T19:15:41.515Z,96224.19
2022-07-28T19:18:11.207Z,96227.09
2022-07-28T19:20:44.702Z,96216.28
2022-07-28T19:23:11.693Z,96220.97
2022-07-28T19:25:41.609Z,96231.31
2022-07-28T19:28:08.999Z,96229.34
2022-07-28T19:30:36.037Z,96237.50
2022-07-28T19:33:03.990Z,96233.72
2022-07-28T19:35:30.857Z,96234.13
2022-07-28T19:37:59.897Z,96240.28
2022-07-28T19:40:31.551Z,96235.47
2022-07-28T19:42:59.478Z,96234.13
2022-07-28T19:45:26.387Z,96236.91
2022-07-28T19:47:54.606Z,96224.50
2022-07-28T19:50:21.749Z,96235.69
2022-07-28T19:52:48.677Z,96228.50
2022-07-28T19:55:17.443Z,96234.06
2022-07-28T19:57:47.919Z,96230.84
2022-07-28T20:00:17.506Z,96228.81
2022-07-28T20:02:45.890Z,96229.28
2022-07-28T20:05:13.187Z,96234.00
2022-07-28T20:07:40.184Z,96238.56
2022-07-28T20:10:07.272Z,96243.84
2022-07-28T20:12:36.815Z,96239.31
2022-07-28T20:15:08.054Z,96244.31
2022-07-28T20:17:38.547Z,96241.66
2022-07-28T20:20:09.096Z,96233.09
2022-07-28T20:22:37.396Z,96232.06
2022-07-28T20:25:05.796Z,96239.66
2022-07-28T20:27:41.405Z,96239.44
2022-07-28T20:30:12.776Z,96246.25
2022-07-28T20:32:40.751Z,96251.06
2022-07-28T20:35:10.774Z,96245.19
2022-07-28T20:37:38.634Z,96251.34
2022-07-28T20:40:08.245Z,96262.47
2022-07-28T20:42:36.698Z,96257.81
2022-07-28T20:45:05.419Z,96260.31
2022-07-28T20:47:35.461Z,96260.22
2022-07-28T20:50:05.078Z,96251.16
2022-07-28T20:52:33.862Z,96259.41
2022-07-28T20:55:01.076Z,96257.78
2022-07-28T20:57:27.991Z,96253.84
2022-07-28T20:59:54.844Z,96264.13
2022-07-28T21:02:22.975Z,96261.28
2022-07-28T21:04:50.870Z,96265.19
2022-07-28T21:07:59.888Z,96267.94
2022-07-28T21:10:10.386Z,96277.53
2022-07-28T21:12:37.977Z,96264.59
2022-07-28T21:15:07.237Z,96275.13
2022-07-28T21:17:34.709Z,96278.03
2022-07-28T21:20:01.757Z,96281.31
2022-07-28T21:22:28.843Z,96287.25
2022-07-28T21:24:56.013Z,96287.03
2022-07-28T21:27:23.601Z,96289.44
2022-07-28T21:32:18.565Z,96296.97
2022-07-28T21:34:45.527Z,96307.72
2022-07-28T21:37:13.019Z,96312.31
2022-07-28T21:39:40.298Z,96313.31
2022-07-28T21:42:08.848Z,96321.25
2022-07-28T21:44:37.160Z,96331.06
2022-07-28T21:47:04.858Z,96335.16
2022-07-28T21:49:32.350Z,96355.34
2022-07-28T21:51:59.520Z,96383.47
2022-07-28T21:54:26.612Z,96386.59
2022-07-28T21:56:53.458Z,96388.72
2022-07-28T21:59:20.346Z,96392.56
2022-07-28T22:01:47.922Z,96393.13
2022-07-28T22:04:15.930Z,96391.44
2022-07-28T22:06:46.225Z,96401.97
2022-07-28T22:09:14.874Z,96397.38
2022-07-28T22:11:42.032Z,96410.84
2022-07-28T22:14:09.190Z,96410.47
2022-07-28T22:16:36.349Z,96410.13
2022-07-28T22:19:03.870Z,96409.50
2022-07-28T22:21:30.845Z,96408.94
2022-07-28T22:23:57.692Z,96409.94
2022-07-28T22:26:24.638Z,96407.19
2022-07-28T22:28:51.478Z,96413.66
2022-07-28T22:31:18.548Z,96422.22
2022-07-28T22:33:45.488Z,96412.75
2022-07-28T22:36:12.533Z,96411.94
2022-07-28T22:38:39.366Z,96418.91
2022-07-28T22:41:06.245Z,96414.00
2022-07-28T22:43:34.046Z,96414.00
2022-07-28T22:46:01.273Z,96415.00
2022-07-28T22:48:28.387Z,96412.09
2022-07-28T22:50:55.503Z,96409.94
2022-07-28T22:53:22.572Z,96415.13
2022-07-28T22:55:49.437Z,96420.72
2022-07-28T22:58:17.605Z,96425.41
2022-07-28T23:00:44.534Z,96427.03
2022-07-28T23:03:13.032Z,96423.25
2022-07-28T23:05:40.527Z,96424.41
2022-07-28T23:08:07.441Z,96427.19
2022-07-28T23:10:34.632Z,96428.13
2022-07-28T23:13:02.174Z,96419.28
2022-07-28T23:15:41.163Z,96420.88
2022-07-28T23:18:14.180Z,96418.31
2022-07-28T23:20:42.477Z,96422.72
2022-07-28T23:23:10.793Z,96416.34
2022-07-28T23:25:42.527Z,96413.16
2022-07-28T23:28:09.925Z,96398.81
2022-07-28T23:30:37.298Z,96399.59
2022-07-28T23:33:05.451Z,96398.22
2022-07-28T23:35:33.361Z,96406.25
2022-07-28T23:38:00.222Z,96408.91
2022-07-28T23:40:27.461Z,96408.16
2022-07-28T23:42:54.316Z,96404.19
2022-07-28T23:45:21.148Z,96406.06
2022-07-28T23:47:47.981Z,96404.75
2022-07-28T23:50:14.939Z,96406.66
2022-07-28T23:52:41.781Z,96405.88
2022-07-28T23:55:09.249Z,96402.13
2022-07-28T23:57:36.133Z,96396.75
